sensor_id;sensor_type;location;lat;lon;timestamp;P1;durP1;ratioP1;P2;durP2;ratioP2
29006;SDS011;16104;48.642;9.008;2024-01-15T00:04:19;23.33;;;11.93;;
29006;SDS011;16104;48.642;9.008;2024-01-15T00:09:14;23.52;;;11.50;;
29006;SDS011;16104;48.642;9.008;2024-01-15T00:14:10;23.88;;;11.93;;
29006;SDS011;16104;48.642;9.008;2024-01-15T00:19:07;26.63;;;12.20;;
29006;SDS011;16104;48.642;9.008;2024-01-15T00:24:02;26.55;;;12.52;;
29006;SDS011;16104;48.642;9.008;2024-01-15T00:28:58;26.65;;;11.73;;
29006;SDS011;16104;48.642;9.008;2024-01-15T00:33:53;22.38;;;10.80;;
29006;SDS011;16104;48.642;9.008;2024-01-15T00:38:49;20.77;;;11.20;;
29006;SDS011;16104;48.642;9.008;2024-01-15T00:43:45;23.45;;;11.43;;
29006;SDS011;16104;48.642;9.008;2024-01-15T00:48:40;21.77;;;11.07;;
29006;SDS011;16104;48.642;9.008;2024-01-15T00:53:36;21.30;;;10.73;;
29006;SDS011;16104;48.642;9.008;2024-01-15T00:58:31;20.65;;;10.18;;
29006;SDS011;16104;48.642;9.008;2024-01-15T05:04:30;23.73;;;10.98;;
29006;SDS011;16104;48.642;9.008;2024-01-15T05:09:25;22.98;;;11.20;;
29006;SDS011;16104;48.642;9.008;2024-01-15T05:14:21;25.65;;;10.93;;
29006;SDS011;16104;48.642;9.008;2024-01-15T05:19:16;23.77;;;11.23;;
29006;SDS011;16104;48.642;9.008;2024-01-15T05:24:13;23.48;;;11.20;;
29006;SDS011;16104;48.642;9.008;2024-01-15T05:29:08;21.40;;;11.18;;
29006;SDS011;16104;48.642;9.008;2024-01-15T05:34:04;22.35;;;10.98;;
29006;SDS011;16104;48.642;9.008;2024-01-15T05:38:59;24.95;;;11.80;;
29006;SDS011;16104;48.642;9.008;2024-01-15T05:43:55;21.42;;;10.10;;
29006;SDS011;16104;48.642;9.008;2024-01-15T05:48:50;20.45;;;10.35;;
29006;SDS011;16104;48.642;9.008;2024-01-15T05:53:46;18.13;;;9.48;;
29006;SDS011;16104;48.642;9.008;2024-01-15T05:58:41;22.65;;;11.02;;
29006;SDS011;16104;48.642;9.008;2024-01-15T06:03:37;23.35;;;11.77;;
29006;SDS011;16104;48.642;9.008;2024-01-15T06:08:32;24.48;;;12.00;;
29006;SDS011;16104;48.642;9.008;2024-01-15T06:13:28;21.20;;;11.10;;
29006;SDS011;16104;48.642;9.008;2024-01-15T06:18:23;23.48;;;12.18;;
29006;SDS011;16104;48.642;9.008;2024-01-15T06:23:19;24.50;;;11.73;;
29006;SDS011;16104;48.642;9.008;2024-01-15T06:28:14;24.20;;;11.93;;
29006;SDS011;16104;48.642;9.008;2024-01-15T06:33:10;22.38;;;11.93;;
29006;SDS011;16104;48.642;9.008;2024-01-15T06:38:05;23.77;;;12.60;;
29006;SDS011;16104;48.642;9.008;2024-01-15T06:43:01;25.38;;;11.90;;
29006;SDS011;16104;48.642;9.008;2024-01-15T06:47:56;21.15;;;11.68;;
29006;SDS011;16104;48.642;9.008;2024-01-15T06:52:52;24.90;;;12.25;;
29006;SDS011;16104;48.642;9.008;2024-01-15T06:57:47;20.60;;;11.48;;
29006;SDS011;16104;48.642;9.008;2024-01-15T07:02:43;24.65;;;10.88;;
29006;SDS011;16104;48.642;9.008;2024-01-15T07:07:38;23.25;;;11.30;;
29006;SDS011;16104;48.642;9.008;2024-01-15T07:12:34;19.27;;;10.43;;
29006;SDS011;16104;48.642;9.008;2024-01-15T07:17:29;19.85;;;9.95;;
29006;SDS011;16104;48.642;9.008;2024-01-15T07:22:26;19.60;;;10.52;;
29006;SDS011;16104;48.642;9.008;2024-01-15T07:27:21;20.73;;;10.05;;
29006;SDS011;16104;48.642;9.008;2024-01-15T07:32:17;18.88;;;9.40;;
29006;SDS011;16104;48.642;9.008;2024-01-15T07:37:12;20.52;;;9.85;;
29006;SDS011;16104;48.642;9.008;2024-01-15T07:42:08;19.90;;;10.43;;
29006;SDS011;16104;48.642;9.008;2024-01-15T07:47:03;20.20;;;10.73;;
29006;SDS011;16104;48.642;9.008;2024-01-15T07:51:59;17.58;;;9.00;;
29006;SDS011;16104;48.642;9.008;2024-01-15T08:01:52;19.35;;;9.35;;
29006;SDS011;16104;48.642;9.008;2024-01-15T08:06:48;18.95;;;8.80;;
29006;SDS011;16104;48.642;9.008;2024-01-15T08:11:43;17.48;;;9.45;;
29006;SDS011;16104;48.642;9.008;2024-01-15T08:16:39;16.98;;;8.05;;
29006;SDS011;16104;48.642;9.008;2024-01-15T08:21:35;17.38;;;8.55;;
29006;SDS011;16104;48.642;9.008;2024-01-15T08:26:30;15.13;;;7.22;;
29006;SDS011;16104;48.642;9.008;2024-01-15T08:31:27;13.60;;;7.38;;
29006;SDS011;16104;48.642;9.008;2024-01-15T08:36:23;12.75;;;6.60;;
29006;SDS011;16104;48.642;9.008;2024-01-15T08:41:19;12.65;;;6.30;;
29006;SDS011;16104;48.642;9.008;2024-01-15T08:46:14;9.95;;;5.57;;
29006;SDS011;16104;48.642;9.008;2024-01-15T08:51:10;12.32;;;6.10;;
29006;SDS011;16104;48.642;9.008;2024-01-15T08:56:05;10.07;;;6.00;;
29006;SDS011;16104;48.642;9.008;2024-01-15T09:01:01;8.98;;;5.43;;
29006;SDS011;16104;48.642;9.008;2024-01-15T09:05:57;11.48;;;5.63;;
29006;SDS011;16104;48.642;9.008;2024-01-15T09:10:52;15.43;;;6.18;;
29006;SDS011;16104;48.642;9.008;2024-01-15T09:15:48;12.55;;;6.03;;
29006;SDS011;16104;48.642;9.008;2024-01-15T09:20:43;10.98;;;5.60;;
29006;SDS011;16104;48.642;9.008;2024-01-15T09:25:39;14.07;;;6.70;;
29006;SDS011;16104;48.642;9.008;2024-01-15T09:30:35;13.75;;;7.65;;
29006;SDS011;16104;48.642;9.008;2024-01-15T09:35:31;13.23;;;7.43;;
29006;SDS011;16104;48.642;9.008;2024-01-15T09:40:27;10.73;;;5.93;;
29006;SDS011;16104;48.642;9.008;2024-01-15T09:45:27;11.55;;;6.40;;
29006;SDS011;16104;48.642;9.008;2024-01-15T09:50:23;19.67;;;9.80;;
29006;SDS011;16104;48.642;9.008;2024-01-15T09:55:19;12.75;;;7.53;;
29006;SDS011;16104;48.642;9.008;2024-01-15T10:00:18;13.00;;;6.85;;
29006;SDS011;16104;48.642;9.008;2024-01-15T10:05:14;9.32;;;5.68;;
29006;SDS011;16104;48.642;9.008;2024-01-15T10:10:10;8.57;;;5.40;;
29006;SDS011;16104;48.642;9.008;2024-01-15T10:15:08;11.32;;;5.35;;
29006;SDS011;16104;48.642;9.008;2024-01-15T10:20:09;14.80;;;5.77;;
29006;SDS011;16104;48.642;9.008;2024-01-15T10:25:06;11.55;;;5.60;;
29006;SDS011;16104;48.642;9.008;2024-01-15T10:30:05;9.83;;;5.17;;
29006;SDS011;16104;48.642;9.008;2024-01-15T10:35:01;9.30;;;5.07;;
29006;SDS011;16104;48.642;9.008;2024-01-15T10:40:01;9.25;;;5.00;;
29006;SDS011;16104;48.642;9.008;2024-01-15T10:44:59;11.25;;;5.28;;
29006;SDS011;16104;48.642;9.008;2024-01-15T10:49:55;7.80;;;4.80;;
29006;SDS011;16104;48.642;9.008;2024-01-15T10:54:51;9.15;;;5.57;;
29006;SDS011;16104;48.642;9.008;2024-01-15T10:59:48;8.90;;;5.35;;
29006;SDS011;16104;48.642;9.008;2024-01-15T11:04:43;10.65;;;5.38;;
29006;SDS011;16104;48.642;9.008;2024-01-15T11:09:39;14.05;;;5.22;;
29006;SDS011;16104;48.642;9.008;2024-01-15T11:19:37;14.52;;;5.30;;
29006;SDS011;16104;48.642;9.008;2024-01-15T11:29:35;11.80;;;5.88;;
29006;SDS011;16104;48.642;9.008;2024-01-15T11:40:00;8.82;;;4.90;;
29006;SDS011;16104;48.642;9.008;2024-01-15T11:44:58;13.43;;;5.35;;
29006;SDS011;16104;48.642;9.008;2024-01-15T12:00:17;10.30;;;5.45;;
29006;SDS011;16104;48.642;9.008;2024-01-15T12:05:14;11.32;;;5.65;;
29006;SDS011;16104;48.642;9.008;2024-01-15T12:10:11;8.43;;;4.88;;
29006;SDS011;16104;48.642;9.008;2024-01-15T12:15:08;10.38;;;5.25;;
29006;SDS011;16104;48.642;9.008;2024-01-15T12:20:06;10.77;;;5.82;;
29006;SDS011;16104;48.642;9.008;2024-01-15T12:25:02;10.57;;;6.00;;
29006;SDS011;16104;48.642;9.008;2024-01-15T12:29:58;10.48;;;5.40;;
29006;SDS011;16104;48.642;9.008;2024-01-15T12:34:54;13.10;;;5.63;;
29006;SDS011;16104;48.642;9.008;2024-01-15T12:39:49;12.82;;;5.70;;
29006;SDS011;16104;48.642;9.008;2024-01-15T12:44:47;10.45;;;5.57;;
29006;SDS011;16104;48.642;9.008;2024-01-15T12:49:42;9.65;;;5.53;;
29006;SDS011;16104;48.642;9.008;2024-01-15T12:54:41;11.80;;;6.18;;
29006;SDS011;16104;48.642;9.008;2024-01-15T12:59:36;12.70;;;6.05;;
29006;SDS011;16104;48.642;9.008;2024-01-15T13:04:32;10.65;;;5.85;;
29006;SDS011;16104;48.642;9.008;2024-01-15T13:09:27;12.15;;;5.57;;
29006;SDS011;16104;48.642;9.008;2024-01-15T13:14:24;13.02;;;5.38;;
29006;SDS011;16104;48.642;9.008;2024-01-15T13:19:20;11.10;;;4.60;;
29006;SDS011;16104;48.642;9.008;2024-01-15T13:24:18;15.23;;;6.05;;
29006;SDS011;16104;48.642;9.008;2024-01-15T13:29:14;10.55;;;4.78;;
29006;SDS011;16104;48.642;9.008;2024-01-15T13:34:10;11.10;;;5.35;;
29006;SDS011;16104;48.642;9.008;2024-01-15T13:39:05;11.88;;;4.90;;
29006;SDS011;16104;48.642;9.008;2024-01-15T13:44:03;13.70;;;4.82;;
29006;SDS011;16104;48.642;9.008;2024-01-15T13:48:59;16.67;;;5.47;;
29006;SDS011;16104;48.642;9.008;2024-01-15T13:53:54;12.02;;;5.43;;
29006;SDS011;16104;48.642;9.008;2024-01-15T13:58:50;11.63;;;5.75;;
29006;SDS011;16104;48.642;9.008;2024-01-15T14:03:46;11.50;;;6.38;;
29006;SDS011;16104;48.642;9.008;2024-01-15T14:08:42;9.10;;;5.20;;
29006;SDS011;16104;48.642;9.008;2024-01-15T14:13:37;8.77;;;5.45;;
29006;SDS011;16104;48.642;9.008;2024-01-15T14:18:33;8.35;;;5.15;;
29006;SDS011;16104;48.642;9.008;2024-01-15T14:23:28;9.82;;;5.55;;
29006;SDS011;16104;48.642;9.008;2024-01-15T14:28:24;11.02;;;5.88;;
29006;SDS011;16104;48.642;9.008;2024-01-15T14:33:19;8.15;;;4.90;;
29006;SDS011;16104;48.642;9.008;2024-01-15T14:38:15;10.55;;;5.03;;
29006;SDS011;16104;48.642;9.008;2024-01-15T14:43:11;8.82;;;4.72;;
29006;SDS011;16104;48.642;9.008;2024-01-15T14:48:06;4.03;;;3.00;;
29006;SDS011;16104;48.642;9.008;2024-01-15T14:53:01;7.35;;;3.75;;
29006;SDS011;16104;48.642;9.008;2024-01-15T14:57:57;6.07;;;3.35;;
29006;SDS011;16104;48.642;9.008;2024-01-15T15:02:52;8.40;;;4.50;;
29006;SDS011;16104;48.642;9.008;2024-01-15T15:07:48;3.88;;;2.72;;
29006;SDS011;16104;48.642;9.008;2024-01-15T15:12:43;4.65;;;2.97;;
29006;SDS011;16104;48.642;9.008;2024-01-15T15:17:39;3.10;;;2.25;;
29006;SDS011;16104;48.642;9.008;2024-01-15T15:22:35;4.43;;;2.50;;
29006;SDS011;16104;48.642;9.008;2024-01-15T15:27:30;4.65;;;2.80;;
29006;SDS011;16104;48.642;9.008;2024-01-15T15:32:26;6.40;;;3.25;;
29006;SDS011;16104;48.642;9.008;2024-01-15T15:37:21;5.47;;;3.40;;
29006;SDS011;16104;48.642;9.008;2024-01-15T15:42:17;8.60;;;4.57;;
29006;SDS011;16104;48.642;9.008;2024-01-15T15:47:13;6.32;;;3.88;;
29006;SDS011;16104;48.642;9.008;2024-01-15T15:52:11;6.93;;;3.83;;
29006;SDS011;16104;48.642;9.008;2024-01-15T15:57:07;28.35;;;12.30;;
29006;SDS011;16104;48.642;9.008;2024-01-15T16:02:02;8.43;;;5.10;;
29006;SDS011;16104;48.642;9.008;2024-01-15T16:06:58;8.10;;;4.57;;
29006;SDS011;16104;48.642;9.008;2024-01-15T16:11:53;8.40;;;4.47;;
29006;SDS011;16104;48.642;9.008;2024-01-15T16:16:49;8.70;;;4.45;;
29006;SDS011;16104;48.642;9.008;2024-01-15T16:21:45;9.23;;;5.03;;
29006;SDS011;16104;48.642;9.008;2024-01-15T16:26:41;9.77;;;4.70;;
29006;SDS011;16104;48.642;9.008;2024-01-15T16:31:39;8.70;;;4.45;;
29006;SDS011;16104;48.642;9.008;2024-01-15T16:36:35;8.15;;;4.20;;
29006;SDS011;16104;48.642;9.008;2024-01-15T16:41:30;7.93;;;3.95;;
29006;SDS011;16104;48.642;9.008;2024-01-15T16:46:26;7.30;;;4.07;;
29006;SDS011;16104;48.642;9.008;2024-01-15T16:51:21;14.60;;;4.97;;
29006;SDS011;16104;48.642;9.008;2024-01-15T16:56:17;5.72;;;4.40;;
29006;SDS011;16104;48.642;9.008;2024-01-15T17:01:12;7.05;;;4.32;;
29006;SDS011;16104;48.642;9.008;2024-01-15T17:06:08;8.48;;;4.88;;
29006;SDS011;16104;48.642;9.008;2024-01-15T17:11:03;7.13;;;4.15;;
29006;SDS011;16104;48.642;9.008;2024-01-15T17:15:59;9.55;;;5.00;;
29006;SDS011;16104;48.642;9.008;2024-01-15T17:20:55;8.48;;;4.50;;
29006;SDS011;16104;48.642;9.008;2024-01-15T17:25:50;7.10;;;4.65;;
29006;SDS011;16104;48.642;9.008;2024-01-15T17:30:46;7.53;;;5.18;;
29006;SDS011;16104;48.642;9.008;2024-01-15T17:35:51;10.30;;;5.07;;
29006;SDS011;16104;48.642;9.008;2024-01-15T17:40:48;7.60;;;4.80;;
29006;SDS011;16104;48.642;9.008;2024-01-15T17:45:43;8.43;;;5.13;;
29006;SDS011;16104;48.642;9.008;2024-01-15T17:50:39;11.13;;;5.22;;
29006;SDS011;16104;48.642;9.008;2024-01-15T17:55:34;8.50;;;4.97;;
29006;SDS011;16104;48.642;9.008;2024-01-15T18:00:29;10.13;;;5.75;;
29006;SDS011;16104;48.642;9.008;2024-01-15T18:05:25;10.07;;;4.60;;
29006;SDS011;16104;48.642;9.008;2024-01-15T18:10:20;10.65;;;4.70;;
29006;SDS011;16104;48.642;9.008;2024-01-15T18:15:16;10.02;;;4.60;;
29006;SDS011;16104;48.642;9.008;2024-01-15T18:20:12;8.90;;;4.82;;
29006;SDS011;16104;48.642;9.008;2024-01-15T18:25:08;10.98;;;4.82;;
29006;SDS011;16104;48.642;9.008;2024-01-15T18:30:03;8.88;;;4.90;;
29006;SDS011;16104;48.642;9.008;2024-01-15T18:35:00;7.72;;;4.22;;
29006;SDS011;16104;48.642;9.008;2024-01-15T18:39:55;8.13;;;4.50;;
29006;SDS011;16104;48.642;9.008;2024-01-15T18:44:51;7.30;;;4.50;;
29006;SDS011;16104;48.642;9.008;2024-01-15T18:49:46;7.53;;;4.45;;
29006;SDS011;16104;48.642;9.008;2024-01-15T18:54:42;7.78;;;4.10;;
29006;SDS011;16104;48.642;9.008;2024-01-15T18:59:37;9.32;;;4.28;;
29006;SDS011;16104;48.642;9.008;2024-01-15T19:04:35;7.72;;;4.38;;
29006;SDS011;16104;48.642;9.008;2024-01-15T19:09:30;11.05;;;4.40;;
29006;SDS011;16104;48.642;9.008;2024-01-15T19:14:25;7.70;;;3.92;;
29006;SDS011;16104;48.642;9.008;2024-01-15T19:19:21;6.55;;;4.07;;
29006;SDS011;16104;48.642;9.008;2024-01-15T19:24:16;8.23;;;3.97;;
29006;SDS011;16104;48.642;9.008;2024-01-15T19:29:12;9.40;;;4.20;;
29006;SDS011;16104;48.642;9.008;2024-01-15T19:34:07;10.07;;;4.38;;
29006;SDS011;16104;48.642;9.008;2024-01-15T19:39:03;7.32;;;4.45;;
29006;SDS011;16104;48.642;9.008;2024-01-15T19:43:59;9.52;;;4.53;;
29006;SDS011;16104;48.642;9.008;2024-01-15T19:48:54;8.48;;;4.53;;
29006;SDS011;16104;48.642;9.008;2024-01-15T19:53:50;7.13;;;4.25;;
29006;SDS011;16104;48.642;9.008;2024-01-15T19:58:45;6.35;;;3.95;;
29006;SDS011;16104;48.642;9.008;2024-01-15T20:03:41;7.47;;;4.43;;
29006;SDS011;16104;48.642;9.008;2024-01-15T20:08:39;8.73;;;4.35;;
29006;SDS011;16104;48.642;9.008;2024-01-15T20:13:37;6.53;;;4.30;;
29006;SDS011;16104;48.642;9.008;2024-01-15T20:18:34;6.45;;;4.00;;
29006;SDS011;16104;48.642;9.008;2024-01-15T20:23:33;7.28;;;4.18;;
29006;SDS011;16104;48.642;9.008;2024-01-15T20:28:29;7.22;;;4.22;;
29006;SDS011;16104;48.642;9.008;2024-01-15T20:33:24;6.30;;;4.10;;
29006;SDS011;16104;48.642;9.008;2024-01-15T20:38:20;10.52;;;4.68;;
29006;SDS011;16104;48.642;9.008;2024-01-15T20:43:15;7.57;;;3.65;;
29006;SDS011;16104;48.642;9.008;2024-01-15T20:48:11;10.95;;;3.92;;
29006;SDS011;16104;48.642;9.008;2024-01-15T20:53:06;5.65;;;3.60;;
29006;SDS011;16104;48.642;9.008;2024-01-15T20:58:02;6.30;;;3.55;;
29006;SDS011;16104;48.642;9.008;2024-01-15T21:03:00;6.63;;;3.72;;
29006;SDS011;16104;48.642;9.008;2024-01-15T21:07:56;7.75;;;4.15;;
29006;SDS011;16104;48.642;9.008;2024-01-15T21:12:51;7.35;;;3.85;;
29006;SDS011;16104;48.642;9.008;2024-01-15T21:17:47;7.88;;;3.78;;
29006;SDS011;16104;48.642;9.008;2024-01-15T21:22:42;8.40;;;4.25;;
29006;SDS011;16104;48.642;9.008;2024-01-15T21:27:40;9.80;;;4.78;;
29006;SDS011;16104;48.642;9.008;2024-01-15T21:32:36;7.50;;;4.07;;
29006;SDS011;16104;48.642;9.008;2024-01-15T21:37:31;9.23;;;4.72;;
29006;SDS011;16104;48.642;9.008;2024-01-15T21:42:27;6.75;;;4.80;;
29006;SDS011;16104;48.642;9.008;2024-01-15T21:47:22;7.85;;;4.65;;
29006;SDS011;16104;48.642;9.008;2024-01-15T21:52:20;6.10;;;4.30;;
29006;SDS011;16104;48.642;9.008;2024-01-15T21:57:16;8.70;;;4.63;;
29006;SDS011;16104;48.642;9.008;2024-01-15T22:02:11;9.00;;;4.75;;
29006;SDS011;16104;48.642;9.008;2024-01-15T22:07:07;6.88;;;4.53;;
29006;SDS011;16104;48.642;9.008;2024-01-15T22:12:03;14.77;;;7.82;;
29006;SDS011;16104;48.642;9.008;2024-01-15T22:16:58;12.30;;;8.52;;
29006;SDS011;16104;48.642;9.008;2024-01-15T22:21:54;10.77;;;6.35;;
29006;SDS011;16104;48.642;9.008;2024-01-15T22:26:49;8.73;;;5.65;;
29006;SDS011;16104;48.642;9.008;2024-01-15T22:31:45;11.65;;;5.38;;
29006;SDS011;16104;48.642;9.008;2024-01-15T22:36:41;7.60;;;4.72;;
29006;SDS011;16104;48.642;9.008;2024-01-15T22:41:37;10.38;;;5.25;;
29006;SDS011;16104;48.642;9.008;2024-01-15T22:46:32;7.13;;;4.40;;
29006;SDS011;16104;48.642;9.008;2024-01-15T22:51:28;8.15;;;5.10;;
29006;SDS011;16104;48.642;9.008;2024-01-15T22:56:23;5.93;;;4.38;;
29006;SDS011;16104;48.642;9.008;2024-01-15T23:01:20;8.20;;;4.55;;
29006;SDS011;16104;48.642;9.008;2024-01-15T23:06:17;8.43;;;4.60;;
29006;SDS011;16104;48.642;9.008;2024-01-15T23:11:15;10.60;;;4.85;;
29006;SDS011;16104;48.642;9.008;2024-01-15T23:16:10;9.60;;;5.18;;
29006;SDS011;16104;48.642;9.008;2024-01-15T23:21:08;10.80;;;5.40;;
29006;SDS011;16104;48.642;9.008;2024-01-15T23:26:04;8.40;;;5.30;;
29006;SDS011;16104;48.642;9.008;2024-01-15T23:31:02;8.85;;;5.30;;
29006;SDS011;16104;48.642;9.008;2024-01-15T23:35:58;11.07;;;5.07;;
29006;SDS011;16104;48.642;9.008;2024-01-15T23:40:57;9.52;;;5.32;;
29006;SDS011;16104;48.642;9.008;2024-01-15T23:45:53;8.35;;;5.05;;
29006;SDS011;16104;48.642;9.008;2024-01-15T23:50:49;9.40;;;5.15;;
29006;SDS011;16104;48.642;9.008;2024-01-15T23:55:44;8.10;;;4.93;;
